sensor_id;sensor_type;location;lat;lon;timestamp;temperature;humidity
23114;DHT22;11726;50.122;8.832;2023-12-20T00:01:07;5.40;99.90
23114;DHT22;11726;50.122;8.832;2023-12-20T00:03:34;5.40;99.90
23114;DHT22;11726;50.122;8.832;2023-12-20T00:06:08;5.40;99.90
23114;DHT22;11726;50.122;8.832;2023-12-20T00:08:35;5.40;99.90
23114;DHT22;11726;50.122;8.832;2023-12-20T00:11:05;5.40;99.90
23114;DHT22;11726;50.122;8.832;2023-12-20T00:13:32;5.40;99.90
23114;DHT22;11726;50.122;8.832;2023-12-20T00:15:59;5.40;99.90
23114;DHT22;11726;50.122;8.832;2023-12-20T00:18:26;5.40;99.90
23114;DHT22;11726;50.122;8.832;2023-12-20T00:20:52;5.40;99.90
23114;DHT22;11726;50.122;8.832;2023-12-20T00:23:19;5.30;99.90
23114;DHT22;11726;50.122;8.832;2023-12-20T00:25:46;5.40;99.90
23114;DHT22;11726;50.122;8.832;2023-12-20T00:28:13;5.40;99.90
23114;DHT22;11726;50.122;8.832;2023-12-20T00:30:40;5.40;99.90
23114;DHT22;11726;50.122;8.832;2023-12-20T00:33:07;5.40;99.90
23114;DHT22;11726;50.122;8.832;2023-12-20T00:35:33;5.40;99.90
23114;DHT22;11726;50.122;8.832;2023-12-20T00:38:00;5.40;99.90
23114;DHT22;11726;50.122;8.832;2023-12-20T00:40:27;5.30;99.90
23114;DHT22;11726;50.122;8.832;2023-12-20T00:42:54;5.40;99.90
23114;DHT22;11726;50.122;8.832;2023-12-20T00:45:20;5.40;99.90
23114;DHT22;11726;50.122;8.832;2023-12-20T00:47:47;5.40;99.90
23114;DHT22;11726;50.122;8.832;2023-12-20T00:50:14;5.40;99.90
23114;DHT22;11726;50.122;8.832;2023-12-20T00:52:41;5.30;99.90
23114;DHT22;11726;50.122;8.832;2023-12-20T00:55:08;5.30;99.90
23114;DHT22;11726;50.122;8.832;2023-12-20T00:57:34;5.40;99.90
23114;DHT22;11726;50.122;8.832;2023-12-20T01:00:01;5.40;99.90
23114;DHT22;11726;50.122;8.832;2023-12-20T01:02:29;5.40;99.90
23114;DHT22;11726;50.122;8.832;2023-12-20T01:04:55;5.30;99.90
23114;DHT22;11726;50.122;8.832;2023-12-20T01:07:22;5.30;99.90
23114;DHT22;11726;50.122;8.832;2023-12-20T01:09:49;5.30;99.90
23114;DHT22;11726;50.122;8.832;2023-12-20T01:12:16;5.40;99.90
23114;DHT22;11726;50.122;8.832;2023-12-20T01:14:43;5.30;99.90
23114;DHT22;11726;50.122;8.832;2023-12-20T01:17:09;5.30;99.90
23114;DHT22;11726;50.122;8.832;2023-12-20T01:19:36;5.30;99.90
23114;DHT22;11726;50.122;8.832;2023-12-20T01:22:03;5.30;99.90
23114;DHT22;11726;50.122;8.832;2023-12-20T01:24:30;5.30;99.90
23114;DHT22;11726;50.122;8.832;2023-12-20T01:26:57;5.30;99.90
23114;DHT22;11726;50.122;8.832;2023-12-20T01:29:24;5.30;99.90
23114;DHT22;11726;50.122;8.832;2023-12-20T01:31:51;5.30;99.90
23114;DHT22;11726;50.122;8.832;2023-12-20T01:34:18;5.40;99.90
23114;DHT22;11726;50.122;8.832;2023-12-20T01:36:45;5.30;99.90
23114;DHT22;11726;50.122;8.832;2023-12-20T01:39:11;5.30;99.90
23114;DHT22;11726;50.122;8.832;2023-12-20T01:41:53;5.30;99.90
23114;DHT22;11726;50.122;8.832;2023-12-20T01:44:20;5.30;99.90
23114;DHT22;11726;50.122;8.832;2023-12-20T01:46:47;5.30;99.90
23114;DHT22;11726;50.122;8.832;2023-12-20T01:49:14;5.30;99.90
23114;DHT22;11726;50.122;8.832;2023-12-20T01:51:42;5.30;99.90
23114;DHT22;11726;50.122;8.832;2023-12-20T01:54:09;5.30;99.90
23114;DHT22;11726;50.122;8.832;2023-12-20T01:56:36;5.30;99.90
23114;DHT22;11726;50.122;8.832;2023-12-20T01:59:03;5.30;99.90
23114;DHT22;11726;50.122;8.832;2023-12-20T02:01:30;5.30;99.90
23114;DHT22;11726;50.122;8.832;2023-12-20T02:03:58;5.30;99.90
23114;DHT22;11726;50.122;8.832;2023-12-20T02:06:31;5.30;99.90
23114;DHT22;11726;50.122;8.832;2023-12-20T02:09:00;5.30;99.90
23114;DHT22;11726;50.122;8.832;2023-12-20T02:11:27;5.30;99.90
23114;DHT22;11726;50.122;8.832;2023-12-20T02:13:54;5.30;99.90
23114;DHT22;11726;50.122;8.832;2023-12-20T02:16:21;5.30;99.90
23114;DHT22;11726;50.122;8.832;2023-12-20T02:18:48;5.30;99.90
23114;DHT22;11726;50.122;8.832;2023-12-20T02:21:16;5.30;99.90
23114;DHT22;11726;50.122;8.832;2023-12-20T02:23:42;5.30;99.90
23114;DHT22;11726;50.122;8.832;2023-12-20T02:26:09;5.30;99.90
23114;DHT22;11726;50.122;8.832;2023-12-20T02:28:36;5.30;99.90
23114;DHT22;11726;50.122;8.832;2023-12-20T02:31:03;5.30;99.90
23114;DHT22;11726;50.122;8.832;2023-12-20T02:33:30;5.30;99.90
23114;DHT22;11726;50.122;8.832;2023-12-20T02:35:56;5.30;99.90
23114;DHT22;11726;50.122;8.832;2023-12-20T02:38:23;5.30;99.90
23114;DHT22;11726;50.122;8.832;2023-12-20T02:40:50;5.30;99.90
23114;DHT22;11726;50.122;8.832;2023-12-20T02:43:16;5.30;99.90
23114;DHT22;11726;50.122;8.832;2023-12-20T02:45:43;5.30;99.90
23114;DHT22;11726;50.122;8.832;2023-12-20T02:48:10;5.30;99.90
23114;DHT22;11726;50.122;8.832;2023-12-20T02:50:37;5.30;99.90
23114;DHT22;11726;50.122;8.832;2023-12-20T02:53:03;5.30;99.90
23114;DHT22;11726;50.122;8.832;2023-12-20T02:55:30;5.30;99.90
23114;DHT22;11726;50.122;8.832;2023-12-20T02:57:57;5.30;99.90
23114;DHT22;11726;50.122;8.832;2023-12-20T03:00:24;5.30;99.90
23114;DHT22;11726;50.122;8.832;2023-12-20T03:02:51;5.30;99.90
23114;DHT22;11726;50.122;8.832;2023-12-20T03:05:17;5.30;99.90
23114;DHT22;11726;50.122;8.832;2023-12-20T03:07:44;5.30;99.90
23114;DHT22;11726;50.122;8.832;2023-12-20T03:10:12;5.30;99.90
23114;DHT22;11726;50.122;8.832;2023-12-20T03:12:49;5.30;99.90
23114;DHT22;11726;50.122;8.832;2023-12-20T03:15:16;5.30;99.90
23114;DHT22;11726;50.122;8.832;2023-12-20T03:17:43;5.30;99.90
23114;DHT22;11726;50.122;8.832;2023-12-20T03:20:10;5.30;99.90
23114;DHT22;11726;50.122;8.832;2023-12-20T03:22:37;5.40;99.90
23114;DHT22;11726;50.122;8.832;2023-12-20T03:25:04;5.40;99.90
23114;DHT22;11726;50.122;8.832;2023-12-20T03:27:31;5.40;99.90
23114;DHT22;11726;50.122;8.832;2023-12-20T03:29:57;5.30;99.90
23114;DHT22;11726;50.122;8.832;2023-12-20T03:32:24;5.30;99.90
23114;DHT22;11726;50.122;8.832;2023-12-20T03:34:51;5.40;99.90
23114;DHT22;11726;50.122;8.832;2023-12-20T03:37:18;5.30;99.90
23114;DHT22;11726;50.122;8.832;2023-12-20T03:39:45;5.40;99.90
23114;DHT22;11726;50.122;8.832;2023-12-20T03:42:11;5.30;99.90
23114;DHT22;11726;50.122;8.832;2023-12-20T03:44:39;5.40;99.90
23114;DHT22;11726;50.122;8.832;2023-12-20T03:47:07;5.40;99.90
23114;DHT22;11726;50.122;8.832;2023-12-20T03:49:33;5.40;99.90
23114;DHT22;11726;50.122;8.832;2023-12-20T03:52:03;5.40;99.90
23114;DHT22;11726;50.122;8.832;2023-12-20T03:54:30;5.40;99.90
23114;DHT22;11726;50.122;8.832;2023-12-20T03:56:57;5.40;99.90
23114;DHT22;11726;50.122;8.832;2023-12-20T03:59:23;5.50;99.90
23114;DHT22;11726;50.122;8.832;2023-12-20T04:01:50;5.50;99.90
23114;DHT22;11726;50.122;8.832;2023-12-20T04:04:17;5.50;99.90
23114;DHT22;11726;50.122;8.832;2023-12-20T04:06:43;5.50;99.90
23114;DHT22;11726;50.122;8.832;2023-12-20T04:09:10;5.50;99.90
23114;DHT22;11726;50.122;8.832;2023-12-20T04:11:37;5.50;99.90
23114;DHT22;11726;50.122;8.832;2023-12-20T04:14:04;5.50;99.90
23114;DHT22;11726;50.122;8.832;2023-12-20T04:16:34;5.50;99.90
23114;DHT22;11726;50.122;8.832;2023-12-20T04:19:01;5.50;99.90
23114;DHT22;11726;50.122;8.832;2023-12-20T04:21:28;5.50;99.90
23114;DHT22;11726;50.122;8.832;2023-12-20T04:23:55;5.50;99.90
23114;DHT22;11726;50.122;8.832;2023-12-20T04:26:21;5.50;99.90
23114;DHT22;11726;50.122;8.832;2023-12-20T04:28:48;5.50;99.90
23114;DHT22;11726;50.122;8.832;2023-12-20T04:31:16;5.50;99.90
23114;DHT22;11726;50.122;8.832;2023-12-20T04:33:43;5.40;99.90
23114;DHT22;11726;50.122;8.832;2023-12-20T04:36:10;5.40;99.90
23114;DHT22;11726;50.122;8.832;2023-12-20T04:38:37;5.40;99.90
23114;DHT22;11726;50.122;8.832;2023-12-20T04:41:03;5.40;99.90
23114;DHT22;11726;50.122;8.832;2023-12-20T04:43:30;5.40;99.90
23114;DHT22;11726;50.122;8.832;2023-12-20T04:45:57;5.40;99.90
23114;DHT22;11726;50.122;8.832;2023-12-20T04:48:24;5.30;99.90
23114;DHT22;11726;50.122;8.832;2023-12-20T04:50:51;5.40;99.90
23114;DHT22;11726;50.122;8.832;2023-12-20T04:53:17;5.30;99.90
23114;DHT22;11726;50.122;8.832;2023-12-20T04:55:44;5.30;99.90
23114;DHT22;11726;50.122;8.832;2023-12-20T04:58:11;5.30;99.90
23114;DHT22;11726;50.122;8.832;2023-12-20T05:00:38;5.30;99.90
23114;DHT22;11726;50.122;8.832;2023-12-20T05:03:04;5.30;99.90
23114;DHT22;11726;50.122;8.832;2023-12-20T05:05:31;5.30;99.90
23114;DHT22;11726;50.122;8.832;2023-12-20T05:07:58;5.30;99.90
23114;DHT22;11726;50.122;8.832;2023-12-20T05:10:25;5.30;99.90
23114;DHT22;11726;50.122;8.832;2023-12-20T05:12:53;5.30;99.90
23114;DHT22;11726;50.122;8.832;2023-12-20T05:15:20;5.30;99.90
23114;DHT22;11726;50.122;8.832;2023-12-20T05:17:47;5.40;99.90
23114;DHT22;11726;50.122;8.832;2023-12-20T05:20:14;5.40;99.90
23114;DHT22;11726;50.122;8.832;2023-12-20T05:22:41;5.30;99.90
23114;DHT22;11726;50.122;8.832;2023-12-20T05:25:08;5.40;99.90
23114;DHT22;11726;50.122;8.832;2023-12-20T05:27:34;5.30;99.90
23114;DHT22;11726;50.122;8.832;2023-12-20T05:30:01;5.30;99.90
23114;DHT22;11726;50.122;8.832;2023-12-20T05:32:28;5.30;99.90
23114;DHT22;11726;50.122;8.832;2023-12-20T05:34:55;5.20;99.90
23114;DHT22;11726;50.122;8.832;2023-12-20T05:37:22;5.20;99.90
23114;DHT22;11726;50.122;8.832;2023-12-20T05:39:49;5.20;99.90
23114;DHT22;11726;50.122;8.832;2023-12-20T05:42:16;5.20;99.90
23114;DHT22;11726;50.122;8.832;2023-12-20T05:44:42;5.20;99.90
23114;DHT22;11726;50.122;8.832;2023-12-20T05:47:09;5.10;99.90
23114;DHT22;11726;50.122;8.832;2023-12-20T05:49:35;5.00;99.90
23114;DHT22;11726;50.122;8.832;2023-12-20T05:52:02;5.10;99.90
23114;DHT22;11726;50.122;8.832;2023-12-20T05:54:29;5.10;99.90
23114;DHT22;11726;50.122;8.832;2023-12-20T05:56:56;5.20;99.90
23114;DHT22;11726;50.122;8.832;2023-12-20T05:59:23;5.20;99.90
23114;DHT22;11726;50.122;8.832;2023-12-20T06:01:50;5.20;99.90
23114;DHT22;11726;50.122;8.832;2023-12-20T06:04:17;5.20;99.90
23114;DHT22;11726;50.122;8.832;2023-12-20T06:06:45;5.20;99.90
23114;DHT22;11726;50.122;8.832;2023-12-20T06:09:12;5.20;99.90
23114;DHT22;11726;50.122;8.832;2023-12-20T06:11:38;5.30;99.90
23114;DHT22;11726;50.122;8.832;2023-12-20T06:14:05;5.40;99.90
23114;DHT22;11726;50.122;8.832;2023-12-20T06:16:32;5.60;99.90
23114;DHT22;11726;50.122;8.832;2023-12-20T06:18:59;5.50;99.90
23114;DHT22;11726;50.122;8.832;2023-12-20T06:21:26;5.50;99.90
23114;DHT22;11726;50.122;8.832;2023-12-20T06:23:52;5.40;99.90
23114;DHT22;11726;50.122;8.832;2023-12-20T06:26:19;5.30;99.90
23114;DHT22;11726;50.122;8.832;2023-12-20T06:28:46;5.30;99.90
23114;DHT22;11726;50.122;8.832;2023-12-20T06:31:12;5.30;99.90
23114;DHT22;11726;50.122;8.832;2023-12-20T06:33:39;5.20;99.90
23114;DHT22;11726;50.122;8.832;2023-12-20T06:36:10;5.10;99.90
23114;DHT22;11726;50.122;8.832;2023-12-20T06:38:37;5.20;99.90
23114;DHT22;11726;50.122;8.832;2023-12-20T06:41:03;5.20;99.90
23114;DHT22;11726;50.122;8.832;2023-12-20T06:43:30;5.10;99.90
23114;DHT22;11726;50.122;8.832;2023-12-20T06:46:14;5.00;99.90
23114;DHT22;11726;50.122;8.832;2023-12-20T06:48:41;5.00;99.90
23114;DHT22;11726;50.122;8.832;2023-12-20T06:51:14;5.20;99.90
23114;DHT22;11726;50.122;8.832;2023-12-20T06:53:41;5.10;99.90
23114;DHT22;11726;50.122;8.832;2023-12-20T06:56:10;5.10;99.90
23114;DHT22;11726;50.122;8.832;2023-12-20T06:58:39;5.00;99.90
23114;DHT22;11726;50.122;8.832;2023-12-20T07:01:11;4.90;99.90
23114;DHT22;11726;50.122;8.832;2023-12-20T07:03:38;4.80;99.90
23114;DHT22;11726;50.122;8.832;2023-12-20T07:06:05;4.80;99.90
23114;DHT22;11726;50.122;8.832;2023-12-20T07:08:32;4.80;99.90
23114;DHT22;11726;50.122;8.832;2023-12-20T07:10:59;4.80;99.90
23114;DHT22;11726;50.122;8.832;2023-12-20T07:13:25;4.80;99.90
23114;DHT22;11726;50.122;8.832;2023-12-20T07:15:52;4.80;99.90
23114;DHT22;11726;50.122;8.832;2023-12-20T07:18:19;4.90;99.90
23114;DHT22;11726;50.122;8.832;2023-12-20T07:20:46;4.90;99.90
23114;DHT22;11726;50.122;8.832;2023-12-20T07:23:12;5.00;99.90
23114;DHT22;11726;50.122;8.832;2023-12-20T07:25:39;5.00;99.90
23114;DHT22;11726;50.122;8.832;2023-12-20T07:28:06;5.10;99.90
23114;DHT22;11726;50.122;8.832;2023-12-20T07:30:32;5.10;99.90
23114;DHT22;11726;50.122;8.832;2023-12-20T07:32:59;5.10;99.90
23114;DHT22;11726;50.122;8.832;2023-12-20T07:35:27;5.20;99.90
23114;DHT22;11726;50.122;8.832;2023-12-20T07:37:54;5.20;99.90
23114;DHT22;11726;50.122;8.832;2023-12-20T07:40:21;5.30;99.90
23114;DHT22;11726;50.122;8.832;2023-12-20T07:42:48;5.20;99.90
23114;DHT22;11726;50.122;8.832;2023-12-20T07:45:15;5.20;99.90
23114;DHT22;11726;50.122;8.832;2023-12-20T07:47:41;5.20;99.90
23114;DHT22;11726;50.122;8.832;2023-12-20T07:50:09;5.10;99.90
23114;DHT22;11726;50.122;8.832;2023-12-20T07:52:36;5.10;99.90
23114;DHT22;11726;50.122;8.832;2023-12-20T07:55:03;5.20;99.90
23114;DHT22;11726;50.122;8.832;2023-12-20T07:57:30;5.30;99.90
23114;DHT22;11726;50.122;8.832;2023-12-20T07:59:57;5.20;99.90
23114;DHT22;11726;50.122;8.832;2023-12-20T08:02:24;5.10;99.90
23114;DHT22;11726;50.122;8.832;2023-12-20T08:04:50;5.10;99.90
23114;DHT22;11726;50.122;8.832;2023-12-20T08:07:17;5.00;99.90
23114;DHT22;11726;50.122;8.832;2023-12-20T08:09:44;5.10;99.90
23114;DHT22;11726;50.122;8.832;2023-12-20T08:12:11;5.10;99.90
23114;DHT22;11726;50.122;8.832;2023-12-20T08:14:38;5.10;99.90
23114;DHT22;11726;50.122;8.832;2023-12-20T08:17:04;5.20;99.90
23114;DHT22;11726;50.122;8.832;2023-12-20T08:19:31;5.20;99.90
23114;DHT22;11726;50.122;8.832;2023-12-20T08:21:58;5.30;99.90
23114;DHT22;11726;50.122;8.832;2023-12-20T08:24:24;5.30;99.90
23114;DHT22;11726;50.122;8.832;2023-12-20T08:26:51;5.30;99.90
23114;DHT22;11726;50.122;8.832;2023-12-20T08:29:18;5.30;99.90
23114;DHT22;11726;50.122;8.832;2023-12-20T08:31:45;5.30;99.90
23114;DHT22;11726;50.122;8.832;2023-12-20T08:34:13;5.40;99.90
23114;DHT22;11726;50.122;8.832;2023-12-20T08:36:42;5.40;99.90
23114;DHT22;11726;50.122;8.832;2023-12-20T08:39:08;5.50;99.90
23114;DHT22;11726;50.122;8.832;2023-12-20T08:41:35;5.50;99.90
23114;DHT22;11726;50.122;8.832;2023-12-20T08:44:03;5.40;99.90
23114;DHT22;11726;50.122;8.832;2023-12-20T08:46:30;5.30;99.90
23114;DHT22;11726;50.122;8.832;2023-12-20T08:48:57;5.30;99.90
23114;DHT22;11726;50.122;8.832;2023-12-20T08:51:24;5.40;99.90
23114;DHT22;11726;50.122;8.832;2023-12-20T08:53:52;5.60;99.90
23114;DHT22;11726;50.122;8.832;2023-12-20T08:56:19;5.70;99.90
23114;DHT22;11726;50.122;8.832;2023-12-20T08:58:46;5.70;99.90
23114;DHT22;11726;50.122;8.832;2023-12-20T09:01:14;5.70;99.90
23114;DHT22;11726;50.122;8.832;2023-12-20T09:03:41;5.60;99.90
23114;DHT22;11726;50.122;8.832;2023-12-20T09:06:08;5.60;99.90
23114;DHT22;11726;50.122;8.832;2023-12-20T09:08:34;5.60;99.90
23114;DHT22;11726;50.122;8.832;2023-12-20T09:11:01;5.70;99.90
23114;DHT22;11726;50.122;8.832;2023-12-20T09:13:28;5.70;99.90
23114;DHT22;11726;50.122;8.832;2023-12-20T09:15:56;5.80;99.90
23114;DHT22;11726;50.122;8.832;2023-12-20T09:18:23;5.90;99.90
23114;DHT22;11726;50.122;8.832;2023-12-20T09:20:50;6.00;99.90
23114;DHT22;11726;50.122;8.832;2023-12-20T09:23:17;6.00;99.90
23114;DHT22;11726;50.122;8.832;2023-12-20T09:25:44;6.00;99.90
23114;DHT22;11726;50.122;8.832;2023-12-20T09:28:11;6.00;99.90
23114;DHT22;11726;50.122;8.832;2023-12-20T09:30:38;6.10;99.90
23114;DHT22;11726;50.122;8.832;2023-12-20T09:33:06;6.10;99.90
23114;DHT22;11726;50.122;8.832;2023-12-20T09:35:34;6.20;99.90
23114;DHT22;11726;50.122;8.832;2023-12-20T09:38:01;6.20;99.90
23114;DHT22;11726;50.122;8.832;2023-12-20T09:40:28;6.20;99.90
23114;DHT22;11726;50.122;8.832;2023-12-20T09:43:05;6.20;99.90
23114;DHT22;11726;50.122;8.832;2023-12-20T09:45:35;6.30;99.90
23114;DHT22;11726;50.122;8.832;2023-12-20T09:48:03;6.30;99.90
23114;DHT22;11726;50.122;8.832;2023-12-20T09:50:31;6.40;99.90
23114;DHT22;11726;50.122;8.832;2023-12-20T09:53:01;6.40;99.90
23114;DHT22;11726;50.122;8.832;2023-12-20T09:55:30;6.40;99.90
23114;DHT22;11726;50.122;8.832;2023-12-20T09:57:59;6.50;99.90
23114;DHT22;11726;50.122;8.832;2023-12-20T10:00:26;6.50;99.90
23114;DHT22;11726;50.122;8.832;2023-12-20T10:03:00;6.50;99.90
23114;DHT22;11726;50.122;8.832;2023-12-20T10:05:31;6.60;99.90
23114;DHT22;11726;50.122;8.832;2023-12-20T10:07:59;6.60;99.90
23114;DHT22;11726;50.122;8.832;2023-12-20T10:10:27;6.80;99.90
23114;DHT22;11726;50.122;8.832;2023-12-20T10:13:11;6.70;99.90
23114;DHT22;11726;50.122;8.832;2023-12-20T10:15:38;6.70;99.90
23114;DHT22;11726;50.122;8.832;2023-12-20T10:18:05;6.70;99.90
23114;DHT22;11726;50.122;8.832;2023-12-20T10:20:32;6.80;99.90
23114;DHT22;11726;50.122;8.832;2023-12-20T10:23:00;6.80;99.90
23114;DHT22;11726;50.122;8.832;2023-12-20T10:25:27;6.80;99.90
23114;DHT22;11726;50.122;8.832;2023-12-20T10:28:13;6.80;99.90
23114;DHT22;11726;50.122;8.832;2023-12-20T10:30:40;6.80;99.90
23114;DHT22;11726;50.122;8.832;2023-12-20T10:33:09;6.80;99.90
23114;DHT22;11726;50.122;8.832;2023-12-20T10:35:38;6.90;99.90
23114;DHT22;11726;50.122;8.832;2023-12-20T10:38:07;6.90;99.90
23114;DHT22;11726;50.122;8.832;2023-12-20T10:40:35;7.00;99.90
23114;DHT22;11726;50.122;8.832;2023-12-20T10:43:04;7.00;99.90
23114;DHT22;11726;50.122;8.832;2023-12-20T10:45:31;7.00;99.90
23114;DHT22;11726;50.122;8.832;2023-12-20T10:47:58;7.00;99.90
23114;DHT22;11726;50.122;8.832;2023-12-20T10:50:28;7.10;99.90
23114;DHT22;11726;50.122;8.832;2023-12-20T10:52:56;7.10;99.90
23114;DHT22;11726;50.122;8.832;2023-12-20T10:55:23;7.20;99.90
23114;DHT22;11726;50.122;8.832;2023-12-20T10:57:51;7.20;99.90
23114;DHT22;11726;50.122;8.832;2023-12-20T11:00:19;7.20;99.90
23114;DHT22;11726;50.122;8.832;2023-12-20T11:02:49;7.30;99.90
23114;DHT22;11726;50.122;8.832;2023-12-20T11:05:42;7.40;99.90
23114;DHT22;11726;50.122;8.832;2023-12-20T11:08:22;7.50;99.90
23114;DHT22;11726;50.122;8.832;2023-12-20T11:13:28;7.60;99.90
23114;DHT22;11726;50.122;8.832;2023-12-20T11:15:56;7.50;99.90
23114;DHT22;11726;50.122;8.832;2023-12-20T11:18:29;7.50;99.90
23114;DHT22;11726;50.122;8.832;2023-12-20T11:21:09;7.40;99.90
23114;DHT22;11726;50.122;8.832;2023-12-20T11:23:37;7.40;99.90
23114;DHT22;11726;50.122;8.832;2023-12-20T11:26:03;7.40;99.90
23114;DHT22;11726;50.122;8.832;2023-12-20T11:28:30;7.30;99.90
23114;DHT22;11726;50.122;8.832;2023-12-20T11:30:58;7.40;99.90
23114;DHT22;11726;50.122;8.832;2023-12-20T11:33:36;7.50;99.90
23114;DHT22;11726;50.122;8.832;2023-12-20T11:36:06;7.60;99.90
23114;DHT22;11726;50.122;8.832;2023-12-20T11:38:38;7.60;99.90
23114;DHT22;11726;50.122;8.832;2023-12-20T11:41:06;7.80;99.90
23114;DHT22;11726;50.122;8.832;2023-12-20T11:43:37;7.80;99.90
23114;DHT22;11726;50.122;8.832;2023-12-20T11:46:08;7.80;99.90
23114;DHT22;11726;50.122;8.832;2023-12-20T11:48:38;7.70;99.90
23114;DHT22;11726;50.122;8.832;2023-12-20T11:51:14;7.80;99.90
23114;DHT22;11726;50.122;8.832;2023-12-20T11:53:41;7.80;99.90
23114;DHT22;11726;50.122;8.832;2023-12-20T11:56:09;7.90;99.90
23114;DHT22;11726;50.122;8.832;2023-12-20T11:58:36;7.90;99.90
23114;DHT22;11726;50.122;8.832;2023-12-20T12:01:04;7.90;99.90
23114;DHT22;11726;50.122;8.832;2023-12-20T12:03:31;7.80;99.90
23114;DHT22;11726;50.122;8.832;2023-12-20T12:05:59;7.90;99.90
23114;DHT22;11726;50.122;8.832;2023-12-20T12:08:27;7.90;99.90
23114;DHT22;11726;50.122;8.832;2023-12-20T12:10:53;7.90;99.90
23114;DHT22;11726;50.122;8.832;2023-12-20T12:13:20;7.80;99.90
23114;DHT22;11726;50.122;8.832;2023-12-20T12:15:48;7.90;99.90
23114;DHT22;11726;50.122;8.832;2023-12-20T12:18:18;7.90;99.90
23114;DHT22;11726;50.122;8.832;2023-12-20T12:20:45;7.80;99.90
23114;DHT22;11726;50.122;8.832;2023-12-20T12:23:12;7.80;99.90
23114;DHT22;11726;50.122;8.832;2023-12-20T12:25:39;8.00;99.90
23114;DHT22;11726;50.122;8.832;2023-12-20T12:28:09;8.00;99.90
23114;DHT22;11726;50.122;8.832;2023-12-20T12:30:36;8.10;99.90
23114;DHT22;11726;50.122;8.832;2023-12-20T12:33:12;8.10;99.90
23114;DHT22;11726;50.122;8.832;2023-12-20T12:35:40;8.10;99.90
23114;DHT22;11726;50.122;8.832;2023-12-20T12:38:07;8.20;99.90
23114;DHT22;11726;50.122;8.832;2023-12-20T12:40:35;8.20;99.90
23114;DHT22;11726;50.122;8.832;2023-12-20T12:43:05;8.20;99.90
23114;DHT22;11726;50.122;8.832;2023-12-20T12:45:33;8.20;99.90
23114;DHT22;11726;50.122;8.832;2023-12-20T12:48:00;8.10;99.90
23114;DHT22;11726;50.122;8.832;2023-12-20T12:50:26;8.10;99.90
23114;DHT22;11726;50.122;8.832;2023-12-20T12:52:55;8.10;99.90
23114;DHT22;11726;50.122;8.832;2023-12-20T12:55:22;8.00;99.90
23114;DHT22;11726;50.122;8.832;2023-12-20T12:57:48;8.00;99.90
23114;DHT22;11726;50.122;8.832;2023-12-20T13:00:15;8.10;99.90
23114;DHT22;11726;50.122;8.832;2023-12-20T13:02:42;8.10;99.90
23114;DHT22;11726;50.122;8.832;2023-12-20T13:05:09;8.10;99.90
23114;DHT22;11726;50.122;8.832;2023-12-20T13:07:36;8.10;99.90
23114;DHT22;11726;50.122;8.832;2023-12-20T13:10:04;8.10;99.90
23114;DHT22;11726;50.122;8.832;2023-12-20T13:12:32;8.10;99.90
23114;DHT22;11726;50.122;8.832;2023-12-20T13:14:59;8.10;99.90
23114;DHT22;11726;50.122;8.832;2023-12-20T13:17:25;8.10;99.90
23114;DHT22;11726;50.122;8.832;2023-12-20T13:19:55;8.10;99.90
23114;DHT22;11726;50.122;8.832;2023-12-20T13:22:22;8.20;99.90
23114;DHT22;11726;50.122;8.832;2023-12-20T13:24:49;8.20;99.90
23114;DHT22;11726;50.122;8.832;2023-12-20T13:27:15;8.20;99.90
23114;DHT22;11726;50.122;8.832;2023-12-20T13:29:42;8.20;99.90
23114;DHT22;11726;50.122;8.832;2023-12-20T13:32:09;8.20;99.90
23114;DHT22;11726;50.122;8.832;2023-12-20T13:34:36;8.10;99.90
23114;DHT22;11726;50.122;8.832;2023-12-20T13:37:03;8.20;99.90
23114;DHT22;11726;50.122;8.832;2023-12-20T13:39:31;8.10;99.90
23114;DHT22;11726;50.122;8.832;2023-12-20T13:41:58;8.10;99.90
23114;DHT22;11726;50.122;8.832;2023-12-20T13:44:27;8.10;99.90
23114;DHT22;11726;50.122;8.832;2023-12-20T13:46:54;8.10;99.90
23114;DHT22;11726;50.122;8.832;2023-12-20T13:49:20;8.00;99.90
23114;DHT22;11726;50.122;8.832;2023-12-20T13:51:48;8.00;99.90
23114;DHT22;11726;50.122;8.832;2023-12-20T13:54:15;8.00;99.90
23114;DHT22;11726;50.122;8.832;2023-12-20T13:56:43;8.00;99.90
23114;DHT22;11726;50.122;8.832;2023-12-20T13:59:27;8.00;99.90
23114;DHT22;11726;50.122;8.832;2023-12-20T14:01:54;8.00;99.90
23114;DHT22;11726;50.122;8.832;2023-12-20T14:04:20;7.90;99.90
23114;DHT22;11726;50.122;8.832;2023-12-20T14:07:08;7.80;99.90
23114;DHT22;11726;50.122;8.832;2023-12-20T14:09:36;7.90;99.90
23114;DHT22;11726;50.122;8.832;2023-12-20T14:12:03;7.90;99.90
23114;DHT22;11726;50.122;8.832;2023-12-20T14:14:29;7.90;99.90
23114;DHT22;11726;50.122;8.832;2023-12-20T14:16:56;7.90;99.90
23114;DHT22;11726;50.122;8.832;2023-12-20T14:19:23;7.80;99.90
23114;DHT22;11726;50.122;8.832;2023-12-20T14:21:49;7.80;99.90
23114;DHT22;11726;50.122;8.832;2023-12-20T14:24:16;7.80;99.90
23114;DHT22;11726;50.122;8.832;2023-12-20T14:26:43;7.80;99.90
23114;DHT22;11726;50.122;8.832;2023-12-20T14:29:09;7.70;99.90
23114;DHT22;11726;50.122;8.832;2023-12-20T14:31:36;7.70;99.90
23114;DHT22;11726;50.122;8.832;2023-12-20T14:34:05;7.60;99.90
23114;DHT22;11726;50.122;8.832;2023-12-20T14:36:34;7.60;99.90
23114;DHT22;11726;50.122;8.832;2023-12-20T14:39:00;7.60;99.90
23114;DHT22;11726;50.122;8.832;2023-12-20T14:41:28;7.70;99.90
23114;DHT22;11726;50.122;8.832;2023-12-20T14:43:58;7.70;99.90
23114;DHT22;11726;50.122;8.832;2023-12-20T14:46:26;7.80;99.90
23114;DHT22;11726;50.122;8.832;2023-12-20T14:48:53;7.90;99.90
23114;DHT22;11726;50.122;8.832;2023-12-20T14:51:19;7.90;99.90
23114;DHT22;11726;50.122;8.832;2023-12-20T14:53:46;7.80;99.90
23114;DHT22;11726;50.122;8.832;2023-12-20T14:56:13;7.90;99.90
23114;DHT22;11726;50.122;8.832;2023-12-20T14:58:41;7.80;99.90
23114;DHT22;11726;50.122;8.832;2023-12-20T15:01:08;7.80;99.90
23114;DHT22;11726;50.122;8.832;2023-12-20T15:03:35;7.80;99.90
23114;DHT22;11726;50.122;8.832;2023-12-20T15:06:02;7.80;99.90
23114;DHT22;11726;50.122;8.832;2023-12-20T15:08:29;7.80;99.90
23114;DHT22;11726;50.122;8.832;2023-12-20T15:10:56;7.80;99.90
23114;DHT22;11726;50.122;8.832;2023-12-20T15:13:24;7.70;99.90
23114;DHT22;11726;50.122;8.832;2023-12-20T15:15:51;7.70;99.90
23114;DHT22;11726;50.122;8.832;2023-12-20T15:18:17;7.70;99.90
23114;DHT22;11726;50.122;8.832;2023-12-20T15:20:44;7.70;99.90
23114;DHT22;11726;50.122;8.832;2023-12-20T15:23:11;7.80;99.90
23114;DHT22;11726;50.122;8.832;2023-12-20T15:25:38;7.70;99.90
23114;DHT22;11726;50.122;8.832;2023-12-20T15:28:05;7.70;99.90
23114;DHT22;11726;50.122;8.832;2023-12-20T15:30:32;7.70;99.90
23114;DHT22;11726;50.122;8.832;2023-12-20T15:32:59;7.60;99.90
23114;DHT22;11726;50.122;8.832;2023-12-20T15:35:29;7.70;99.90
23114;DHT22;11726;50.122;8.832;2023-12-20T15:37:56;7.70;99.90
23114;DHT22;11726;50.122;8.832;2023-12-20T15:40:23;7.70;99.90
23114;DHT22;11726;50.122;8.832;2023-12-20T15:42:49;7.70;99.90
23114;DHT22;11726;50.122;8.832;2023-12-20T15:45:16;7.70;99.90
23114;DHT22;11726;50.122;8.832;2023-12-20T15:47:43;7.60;99.90
23114;DHT22;11726;50.122;8.832;2023-12-20T15:50:11;7.60;99.90